createdAt,value
2023-03-07T00:01:30.097Z,-0.68
2023-03-07T00:03:57.209Z,-0.69
2023-03-07T00:06:24.141Z,-0.68
2023-03-07T00:08:51.606Z,-0.68
2023-03-07T00:11:18.691Z,-0.67
2023-03-07T00:13:45.149Z,-0.66
2023-03-07T00:16:13.291Z,-0.64
2023-03-07T00:18:39.975Z,-0.62
2023-03-07T00:21:07.861Z,-0.59
2023-03-07T00:23:35.591Z,-0.57
2023-03-07T00:26:06.513Z,-0.56
2023-03-07T00:28:33.018Z,-0.56
2023-03-07T00:31:00.932Z,-0.54
2023-03-07T00:33:27.490Z,-0.53
2023-03-07T00:35:55.203Z,-0.52
2023-03-07T00:38:21.823Z,-0.50
2023-03-07T00:40:55.338Z,-0.50
2023-03-07T00:43:21.949Z,-0.48
2023-03-07T00:45:48.757Z,-0.48
2023-03-07T00:48:15.290Z,-0.48
2023-03-07T00:50:41.955Z,-0.48
2023-03-07T00:53:08.644Z,-0.49
2023-03-07T00:55:35.108Z,-0.49
2023-03-07T00:58:01.804Z,-0.48
2023-03-07T01:00:28.946Z,-0.48
2023-03-07T01:02:57.295Z,-0.48
2023-03-07T01:05:27.606Z,-0.46
2023-03-07T01:07:59.047Z,-0.44
2023-03-07T01:10:25.504Z,-0.42
2023-03-07T01:12:55.348Z,-0.41
2023-03-07T01:15:22.281Z,-0.43
2023-03-07T01:17:48.743Z,-0.44
2023-03-07T01:20:15.445Z,-0.43
2023-03-07T01:22:44.228Z,-0.43
2023-03-07T01:25:13.130Z,-0.41
2023-03-07T01:27:42.525Z,-0.40
2023-03-07T01:30:09.346Z,-0.39
2023-03-07T01:32:37.853Z,-0.38
2023-03-07T01:35:08.127Z,-0.35
2023-03-07T01:37:34.896Z,-0.33
2023-03-07T01:40:02.222Z,-0.31
2023-03-07T01:42:32.034Z,-0.29
2023-03-07T01:45:25.680Z,-0.27
2023-03-07T01:47:58.009Z,-0.24
2023-03-07T01:50:38.806Z,-0.21
2023-03-07T01:53:08.448Z,-0.20
2023-03-07T01:55:36.094Z,-0.18
2023-03-07T01:58:13.147Z,-0.18
2023-03-07T02:00:40.640Z,-0.17
2023-03-07T02:03:27.374Z,-0.16
2023-03-07T02:05:58.987Z,-0.14
2023-03-07T02:08:34.195Z,-0.11
2023-03-07T02:11:15.858Z,-0.09
2023-03-07T02:14:11.336Z,-0.08
2023-03-07T02:16:38.462Z,-0.06
2023-03-07T02:19:21.824Z,-0.06
2023-03-07T02:22:06.808Z,-0.06
2023-03-07T02:24:40.799Z,-0.09
2023-03-07T02:27:07.483Z,-0.10
2023-03-07T02:29:37.320Z,-0.10
2023-03-07T02:32:04.159Z,-0.11
2023-03-07T02:34:54.160Z,-0.12
2023-03-07T02:37:25.060Z,-0.12
2023-03-07T02:39:52.781Z,-0.13
2023-03-07T02:42:28.178Z,-0.13
2023-03-07T02:45:08.121Z,-0.14
2023-03-07T02:47:54.678Z,-0.14
2023-03-07T02:50:31.582Z,-0.14
2023-03-07T02:52:58.476Z,-0.14
2023-03-07T02:55:38.573Z,-0.13
2023-03-07T02:58:05.287Z,-0.12
2023-03-07T03:00:32.296Z,-0.12
2023-03-07T03:03:02.218Z,-0.12
2023-03-07T03:05:33.858Z,-0.11
2023-03-07T03:08:03.097Z,-0.11
2023-03-07T03:10:29.985Z,-0.10
2023-03-07T03:12:57.729Z,-0.09
2023-03-07T03:15:26.741Z,-0.09
2023-03-07T03:17:54.006Z,-0.09
2023-03-07T03:20:23.109Z,-0.10
2023-03-07T03:22:52.286Z,-0.11
2023-03-07T03:25:21.363Z,-0.11
2023-03-07T03:27:48.431Z,-0.10
2023-03-07T03:30:15.258Z,-0.10
2023-03-07T03:32:42.208Z,-0.10
2023-03-07T03:35:10.065Z,-0.09
2023-03-07T03:37:40.209Z,-0.08
2023-03-07T03:40:07.438Z,-0.08
2023-03-07T03:42:34.130Z,-0.07
2023-03-07T03:45:01.251Z,-0.05
2023-03-07T03:47:29.105Z,-0.04
2023-03-07T03:49:55.702Z,-0.04
2023-03-07T03:52:24.879Z,-0.03
2023-03-07T03:54:54.346Z,-0.03
2023-03-07T03:57:20.991Z,-0.02
2023-03-07T03:59:47.501Z,-0.01
2023-03-07T04:02:15.586Z,-0.02
2023-03-07T04:04:47.473Z,-0.03
2023-03-07T04:07:14.069Z,-0.04
2023-03-07T04:09:40.569Z,-0.04
2023-03-07T04:12:09.907Z,-0.05
2023-03-07T04:14:38.507Z,-0.06
2023-03-07T04:17:05.427Z,-0.07
2023-03-07T04:19:32.179Z,-0.09
2023-03-07T04:22:04.266Z,-0.09
2023-03-07T04:24:30.935Z,-0.10
2023-03-07T04:27:00.207Z,-0.11
2023-03-07T04:29:27.079Z,-0.12
2023-03-07T04:32:00.373Z,-0.13
2023-03-07T04:34:27.199Z,-0.12
2023-03-07T04:36:53.628Z,-0.12
2023-03-07T04:39:20.236Z,-0.12
2023-03-07T04:41:46.837Z,-0.13
2023-03-07T04:44:21.998Z,-0.12
2023-03-07T04:46:48.536Z,-0.12
2023-03-07T04:49:17.903Z,-0.11
2023-03-07T04:51:44.379Z,-0.11
2023-03-07T04:54:13.017Z,-0.10
2023-03-07T04:56:40.013Z,-0.11
2023-03-07T04:59:10.158Z,-0.12
2023-03-07T05:01:36.806Z,-0.14
2023-03-07T05:04:03.513Z,-0.15
2023-03-07T05:06:30.274Z,-0.14
2023-03-07T05:08:57.375Z,-0.14
2023-03-07T05:11:23.922Z,-0.13
2023-03-07T05:13:53.057Z,-0.12
2023-03-07T05:16:21.818Z,-0.13
2023-03-07T05:18:53.986Z,-0.15
2023-03-07T05:21:20.498Z,-0.16
2023-03-07T05:23:47.023Z,-0.15
2023-03-07T05:26:13.696Z,-0.16
2023-03-07T05:28:40.726Z,-0.15
2023-03-07T05:31:07.694Z,-0.14
2023-03-07T05:33:38.422Z,-0.13
2023-03-07T05:36:07.701Z,-0.14
2023-03-07T05:38:35.213Z,-0.13
2023-03-07T05:41:01.645Z,-0.14
2023-03-07T05:43:28.530Z,-0.14
2023-03-07T05:45:58.437Z,-0.16
2023-03-07T05:48:25.144Z,-0.18
2023-03-07T05:50:57.742Z,-0.20
2023-03-07T05:53:24.332Z,-0.21
2023-03-07T05:56:01.319Z,-0.24
2023-03-07T05:58:28.857Z,-0.26
2023-03-07T06:00:55.583Z,-0.28
2023-03-07T06:03:25.329Z,-0.31
2023-03-07T06:05:52.465Z,-0.31
2023-03-07T06:08:21.200Z,-0.32
2023-03-07T06:10:51.627Z,-0.33
2023-03-07T06:13:22.456Z,-0.33
2023-03-07T06:15:49.722Z,-0.31
2023-03-07T06:18:17.295Z,-0.31
2023-03-07T06:20:44.111Z,-0.28
2023-03-07T06:23:15.632Z,-0.26
2023-03-07T06:25:45.529Z,-0.24
2023-03-07T06:28:21.531Z,-0.20
2023-03-07T06:30:48.227Z,-0.13
2023-03-07T06:33:33.800Z,0.00
2023-03-07T06:36:04.790Z,0.13
2023-03-07T07:49:45.218Z,2.77
2023-03-07T07:52:11.965Z,2.88
2023-03-07T07:54:39.797Z,2.96
2023-03-07T07:57:07.320Z,3.05
2023-03-07T07:59:33.988Z,3.12
2023-03-07T08:02:03.826Z,3.19
2023-03-07T08:04:31.055Z,3.27
2023-03-07T08:06:57.844Z,3.38
2023-03-07T08:09:24.498Z,3.50
2023-03-07T08:11:51.166Z,3.70
2023-03-07T08:14:17.827Z,3.88
2023-03-07T08:16:47.318Z,3.94
2023-03-07T08:19:17.160Z,3.93
2023-03-07T08:21:47.145Z,3.92
2023-03-07T08:24:17.426Z,3.92
2023-03-07T08:26:44.436Z,3.97
2023-03-07T08:29:16.492Z,4.05
2023-03-07T08:31:46.957Z,4.16
2023-03-07T08:34:16.881Z,4.30
2023-03-07T08:36:43.814Z,4.45
2023-03-07T08:39:13.853Z,4.60
2023-03-07T08:41:46.080Z,4.71
2023-03-07T08:44:23.078Z,4.89
2023-03-07T08:46:49.918Z,5.08
2023-03-07T08:49:16.494Z,5.27
2023-03-07T08:51:43.150Z,5.42
2023-03-07T08:54:09.797Z,5.51
2023-03-07T08:56:36.192Z,5.63
2023-03-07T08:59:07.558Z,5.71
2023-03-07T09:01:34.058Z,5.76
2023-03-07T09:04:00.576Z,5.81
2023-03-07T09:06:27.652Z,5.82
2023-03-07T09:08:58.239Z,5.76
2023-03-07T09:11:24.730Z,5.72
2023-03-07T09:13:53.229Z,5.61
2023-03-07T09:16:20.964Z,5.56
2023-03-07T09:18:47.540Z,5.57
2023-03-07T09:21:14.078Z,5.63
2023-03-07T09:23:42.139Z,5.69
2023-03-07T09:26:09.974Z,5.87
2023-03-07T09:28:36.617Z,6.03
2023-03-07T09:31:07.536Z,6.18
2023-03-07T09:33:36.360Z,6.37
2023-03-07T09:36:10.227Z,6.52
2023-03-07T09:38:37.662Z,6.61
2023-03-07T09:41:16.039Z,6.69
2023-03-07T09:44:12.081Z,6.73
2023-03-07T09:47:20.013Z,6.58
2023-03-07T09:49:54.657Z,6.55
2023-03-07T09:52:26.602Z,6.71
2023-03-07T09:54:57.199Z,6.70
2023-03-07T09:57:30.744Z,6.72
2023-03-07T10:00:04.131Z,6.70
2023-03-07T10:03:13.832Z,6.60
2023-03-07T10:05:55.419Z,6.45
2023-03-07T10:08:27.271Z,6.43
2023-03-07T10:11:00.290Z,6.30
2023-03-07T10:13:30.043Z,6.00
2023-03-07T10:16:20.267Z,5.66
2023-03-07T10:18:52.838Z,5.37
2023-03-07T10:21:19.762Z,5.23
2023-03-07T10:23:46.289Z,5.12
2023-03-07T10:26:19.084Z,5.05
2023-03-07T10:28:45.974Z,5.08
2023-03-07T10:31:35.901Z,5.36
2023-03-07T10:34:26.940Z,5.58
2023-03-07T10:37:09.182Z,5.72
2023-03-07T10:39:56.931Z,6.00
2023-03-07T10:42:33.003Z,6.66
2023-03-07T10:45:12.600Z,6.97
2023-03-07T10:47:52.362Z,6.87
2023-03-07T10:50:36.090Z,6.73
2023-03-07T10:53:04.121Z,6.62
2023-03-07T10:55:33.523Z,6.48
2023-03-07T10:58:20.851Z,6.29
2023-03-07T11:01:14.388Z,6.17
2023-03-07T11:03:55.326Z,6.36
2023-03-07T11:06:27.969Z,6.63
2023-03-07T11:08:54.696Z,6.58
2023-03-07T11:11:23.646Z,6.72
2023-03-07T11:14:18.773Z,6.90
2023-03-07T11:16:59.629Z,7.50
2023-03-07T11:19:29.489Z,7.64
2023-03-07T11:21:57.141Z,7.62
2023-03-07T11:24:27.985Z,7.65
2023-03-07T11:26:55.858Z,7.57
2023-03-07T11:29:22.394Z,7.39
2023-03-07T11:31:57.838Z,7.69
2023-03-07T11:34:47.531Z,8.23
2023-03-07T11:37:23.752Z,7.95
2023-03-07T11:40:02.645Z,7.71
2023-03-07T11:42:38.560Z,7.64
2023-03-07T11:45:05.152Z,7.73
2023-03-07T11:47:34.778Z,7.56
2023-03-07T11:50:01.612Z,7.33
2023-03-07T11:52:54.315Z,7.06
2023-03-07T11:55:35.541Z,6.82
2023-03-07T11:58:25.651Z,6.74
2023-03-07T12:00:52.133Z,6.98
2023-03-07T12:03:34.215Z,7.15
2023-03-07T12:06:00.701Z,7.08
2023-03-07T12:08:36.923Z,6.93
2023-03-07T12:11:22.255Z,6.80
2023-03-07T12:13:49.160Z,6.85
2023-03-07T12:16:24.526Z,7.06
2023-03-07T12:19:07.281Z,7.31
2023-03-07T12:21:34.421Z,7.72
2023-03-07T12:24:03.379Z,7.93
2023-03-07T12:26:56.636Z,7.90
2023-03-07T12:29:23.149Z,7.88
2023-03-07T12:31:52.489Z,7.83
2023-03-07T12:34:31.910Z,7.99
2023-03-07T12:37:18.573Z,7.93
2023-03-07T12:39:49.977Z,7.78
2023-03-07T12:42:35.514Z,7.90
2023-03-07T12:45:19.990Z,8.02
2023-03-07T12:47:49.784Z,8.19
2023-03-07T12:50:16.139Z,8.31
2023-03-07T12:52:47.667Z,8.62
2023-03-07T12:55:26.266Z,8.78
2023-03-07T12:57:57.316Z,8.60
2023-03-07T13:00:24.163Z,8.47
2023-03-07T13:03:01.415Z,8.17
2023-03-07T13:05:28.886Z,7.89
2023-03-07T13:07:56.337Z,7.75
2023-03-07T13:10:24.329Z,7.66
2023-03-07T13:12:50.990Z,7.62
2023-03-07T13:15:20.491Z,7.83
2023-03-07T13:17:58.872Z,8.07
2023-03-07T13:20:28.592Z,8.04
2023-03-07T13:22:56.382Z,8.27
2023-03-07T13:25:24.277Z,8.38
2023-03-07T13:27:52.996Z,8.39
2023-03-07T13:30:22.671Z,8.42
2023-03-07T13:32:52.195Z,8.82
2023-03-07T13:35:48.246Z,8.85
2023-03-07T13:38:23.104Z,8.71
2023-03-07T13:40:53.801Z,8.56
2023-03-07T13:43:38.834Z,8.47
2023-03-07T13:46:25.342Z,8.15
2023-03-07T13:48:51.896Z,7.92
2023-03-07T13:51:18.518Z,7.80
2023-03-07T13:53:46.123Z,7.87
2023-03-07T13:56:34.375Z,7.91
2023-03-07T13:59:19.413Z,7.92
2023-03-07T14:01:55.358Z,7.97
2023-03-07T14:04:38.358Z,8.06
2023-03-07T14:07:13.483Z,8.16
2023-03-07T14:09:41.653Z,8.16
2023-03-07T14:12:24.777Z,8.23
2023-03-07T14:14:54.296Z,8.31
2023-03-07T14:17:48.747Z,8.32
2023-03-07T14:20:28.700Z,8.27
2023-03-07T14:23:27.519Z,8.21
2023-03-07T14:26:17.376Z,8.17
2023-03-07T14:28:58.190Z,8.09
2023-03-07T14:31:47.365Z,8.04
2023-03-07T14:34:25.442Z,8.03
2023-03-07T14:37:21.439Z,8.02
2023-03-07T14:40:07.708Z,8.03
2023-03-07T14:43:23.585Z,7.97
2023-03-07T14:46:19.527Z,7.86
2023-03-07T14:49:35.541Z,7.74
2023-03-07T14:52:30.415Z,7.68
2023-03-07T14:55:32.368Z,7.59
2023-03-07T14:58:27.578Z,7.44
2023-03-07T15:00:58.443Z,7.27
2023-03-07T15:03:27.895Z,7.15
2023-03-07T15:05:56.101Z,7.04
2023-03-07T15:08:32.536Z,6.93
2023-03-07T15:11:05.651Z,6.82
2023-03-07T15:13:48.539Z,6.70
2023-03-07T15:16:27.058Z,6.65
2023-03-07T15:19:03.321Z,6.70
2023-03-07T15:21:39.829Z,6.83
2023-03-07T15:24:15.924Z,6.85
2023-03-07T15:26:51.256Z,6.75
2023-03-07T15:29:25.177Z,6.70
2023-03-07T15:32:24.500Z,6.63
2023-03-07T15:34:58.467Z,6.58
2023-03-07T15:37:26.837Z,6.50
2023-03-07T15:40:08.691Z,6.42
2023-03-07T15:42:52.666Z,6.29
2023-03-07T15:45:28.577Z,6.09
2023-03-07T15:47:55.921Z,5.96
2023-03-07T15:50:23.526Z,5.85
2023-03-07T15:52:55.227Z,5.73
2023-03-07T15:55:24.970Z,5.61
2023-03-07T15:58:11.662Z,5.49
2023-03-07T16:00:44.626Z,5.38
2023-03-07T16:03:30.022Z,5.31
2023-03-07T16:05:58.026Z,5.25
2023-03-07T16:08:24.529Z,5.17
2023-03-07T16:10:57.958Z,5.08
2023-03-07T16:13:26.842Z,4.99
2023-03-07T16:16:14.756Z,4.89
2023-03-07T16:18:42.092Z,4.78
2023-03-07T16:21:12.020Z,4.68
2023-03-07T16:23:38.451Z,4.59
2023-03-07T16:26:05.611Z,4.52
2023-03-07T16:28:33.104Z,4.45
2023-03-07T16:30:59.736Z,4.39
2023-03-07T16:33:26.375Z,4.35
2023-03-07T16:35:52.736Z,4.30
2023-03-07T16:38:19.225Z,4.26
2023-03-07T16:40:46.894Z,4.24
2023-03-07T16:43:36.508Z,4.22
2023-03-07T16:46:09.854Z,4.20
2023-03-07T16:48:36.418Z,4.18
2023-03-07T16:51:03.482Z,4.16
2023-03-07T16:53:29.955Z,4.14
2023-03-07T16:55:57.893Z,4.12
2023-03-07T16:58:26.182Z,4.09
2023-03-07T17:00:58.595Z,4.08
2023-03-07T17:03:25.784Z,4.07
2023-03-07T17:05:52.232Z,4.04
2023-03-07T17:08:21.393Z,4.01
2023-03-07T17:10:47.931Z,3.99
2023-03-07T17:13:16.289Z,3.96
2023-03-07T17:15:43.296Z,3.90
2023-03-07T17:18:09.909Z,3.84
2023-03-07T17:20:36.280Z,3.79
2023-03-07T17:23:03.115Z,3.73
2023-03-07T17:25:29.743Z,3.66
2023-03-07T17:28:04.567Z,3.60
2023-03-07T17:30:31.314Z,3.56
2023-03-07T17:32:58.187Z,3.53
2023-03-07T17:35:25.866Z,3.51
2023-03-07T17:37:52.498Z,3.49
2023-03-07T17:40:22.093Z,3.44
2023-03-07T17:42:49.371Z,3.39
2023-03-07T17:45:17.039Z,3.37
2023-03-07T17:47:45.164Z,3.36
2023-03-07T17:50:14.693Z,3.33
2023-03-07T17:52:50.805Z,3.30
2023-03-07T17:55:28.616Z,3.26
2023-03-07T17:57:55.500Z,3.21
2023-03-07T18:00:22.980Z,3.18
2023-03-07T18:02:51.981Z,3.15
2023-03-07T18:05:19.144Z,3.12
2023-03-07T18:07:45.877Z,3.09
2023-03-07T18:10:12.320Z,3.05
2023-03-07T18:12:39.482Z,3.02
2023-03-07T18:15:11.130Z,3.00
2023-03-07T18:17:49.437Z,3.00
2023-03-07T18:20:20.645Z,3.02
2023-03-07T18:22:50.692Z,3.01
2023-03-07T18:25:17.600Z,3.01
2023-03-07T18:27:44.118Z,3.00
2023-03-07T18:30:10.997Z,2.99
2023-03-07T18:32:37.602Z,2.98
2023-03-07T18:35:04.236Z,2.95
2023-03-07T18:37:30.837Z,2.94
2023-03-07T18:39:57.261Z,2.91
2023-03-07T18:42:23.703Z,2.90
2023-03-07T18:44:51.057Z,2.87
2023-03-07T18:47:17.514Z,2.88
2023-03-07T18:49:43.921Z,2.89
2023-03-07T18:52:10.617Z,2.91
2023-03-07T18:54:37.113Z,2.94
2023-03-07T18:57:03.534Z,2.94
2023-03-07T18:59:30.141Z,2.94
2023-03-07T19:01:56.593Z,2.94
2023-03-07T19:04:23.080Z,2.95
2023-03-07T19:06:49.798Z,2.96
2023-03-07T19:09:17.497Z,2.96
2023-03-07T19:11:44.289Z,2.95
2023-03-07T19:14:11.350Z,2.95
2023-03-07T19:16:37.949Z,2.95
2023-03-07T19:19:04.535Z,2.97
2023-03-07T19:21:31.656Z,2.97
2023-03-07T19:23:59.662Z,2.98
2023-03-07T19:26:26.572Z,2.99
2023-03-07T19:28:54.106Z,3.00
2023-03-07T19:31:23.681Z,2.99
2023-03-07T19:33:51.023Z,2.99
2023-03-07T19:36:19.848Z,3.02
2023-03-07T19:38:47.721Z,3.05
2023-03-07T19:41:17.255Z,3.08
2023-03-07T19:43:44.210Z,3.09
2023-03-07T19:46:11.639Z,3.11
2023-03-07T19:48:40.901Z,3.12
2023-03-07T19:51:26.137Z,3.12
2023-03-07T19:53:55.982Z,3.11
2023-03-07T19:56:25.907Z,3.10
2023-03-07T19:58:52.836Z,3.09
2023-03-07T20:01:20.522Z,3.08
2023-03-07T20:03:47.679Z,3.08
2023-03-07T20:06:18.077Z,3.11
2023-03-07T20:08:53.054Z,3.14
2023-03-07T20:11:27.181Z,3.13
2023-03-07T20:13:55.399Z,3.13
2023-03-07T20:16:23.857Z,3.14
2023-03-07T20:18:52.209Z,3.15
2023-03-07T20:21:19.616Z,3.17
2023-03-07T20:23:46.822Z,3.18
2023-03-07T20:26:15.209Z,3.20
2023-03-07T20:28:44.808Z,3.20
2023-03-07T20:31:11.412Z,3.22
2023-03-07T20:33:41.389Z,3.23
2023-03-07T20:36:09.694Z,3.24
2023-03-07T20:38:36.869Z,3.26
2023-03-07T20:41:05.122Z,3.28
2023-03-07T20:43:32.160Z,3.30
2023-03-07T20:46:03.326Z,3.33
2023-03-07T20:48:33.172Z,3.36
2023-03-07T20:51:03.935Z,3.37
2023-03-07T20:53:30.889Z,3.37
2023-03-07T20:56:05.039Z,3.37
2023-03-07T20:58:32.178Z,3.37
2023-03-07T21:00:58.906Z,3.37
2023-03-07T21:03:25.912Z,3.38
2023-03-07T21:05:53.209Z,3.38
2023-03-07T21:08:19.719Z,3.39
2023-03-07T21:10:46.952Z,3.38
2023-03-07T21:13:13.454Z,3.38
2023-03-07T21:15:39.894Z,3.42
2023-03-07T21:18:06.501Z,3.41
2023-03-07T21:20:33.119Z,3.41
2023-03-07T21:22:59.466Z,3.41
2023-03-07T21:25:27.083Z,3.38
2023-03-07T21:27:53.516Z,3.39
2023-03-07T21:30:20.202Z,3.39
2023-03-07T21:32:49.715Z,3.39
2023-03-07T21:35:22.655Z,3.39
2023-03-07T21:37:52.560Z,3.39
2023-03-07T21:40:19.269Z,3.38
2023-03-07T21:42:45.829Z,3.39
2023-03-07T21:45:14.791Z,3.37
2023-03-07T21:47:45.645Z,3.36
2023-03-07T21:50:14.318Z,3.36
2023-03-07T21:52:40.903Z,3.35
2023-03-07T21:55:08.117Z,3.33
2023-03-07T21:57:34.778Z,3.31
2023-03-07T22:00:01.386Z,3.31
2023-03-07T22:02:30.687Z,3.33
2023-03-07T22:04:59.856Z,3.33
2023-03-07T22:07:26.305Z,3.33
2023-03-07T22:09:55.803Z,3.34
2023-03-07T22:12:22.439Z,3.34
2023-03-07T22:14:48.970Z,3.31
2023-03-07T22:17:15.561Z,3.30
2023-03-07T22:19:47.436Z,3.27
2023-03-07T22:22:14.149Z,3.25
2023-03-07T22:24:43.923Z,3.24
2023-03-07T22:27:10.645Z,3.22
2023-03-07T22:29:37.067Z,3.22
2023-03-07T22:32:09.182Z,3.23
2023-03-07T22:34:38.786Z,3.21
2023-03-07T22:37:08.456Z,3.22
2023-03-07T22:39:46.093Z,3.21
2023-03-07T22:42:12.610Z,3.20
2023-03-07T22:44:39.230Z,3.18
2023-03-07T22:47:08.489Z,3.17
2023-03-07T22:49:35.100Z,3.17
2023-03-07T22:52:02.750Z,3.17
2023-03-07T22:54:31.744Z,3.20
2023-03-07T22:57:09.017Z,3.22
2023-03-07T22:59:43.181Z,3.22
2023-03-07T23:02:09.610Z,3.22
2023-03-07T23:04:38.728Z,3.22
2023-03-07T23:07:07.683Z,3.23
2023-03-07T23:09:36.694Z,3.23
2023-03-07T23:12:03.181Z,3.24
2023-03-07T23:14:29.579Z,3.23
2023-03-07T23:16:56.273Z,3.22
2023-03-07T23:19:22.794Z,3.23
2023-03-07T23:21:49.293Z,3.23
2023-03-07T23:24:15.715Z,3.24
2023-03-07T23:26:42.114Z,3.25
2023-03-07T23:29:08.498Z,3.25
2023-03-07T23:31:36.586Z,3.26
2023-03-07T23:34:04.789Z,3.26
2023-03-07T23:36:31.287Z,3.28
2023-03-07T23:38:58.604Z,3.29
2023-03-07T23:41:25.418Z,3.29
2023-03-07T23:43:53.067Z,3.30
2023-03-07T23:46:19.661Z,3.29
2023-03-07T23:48:46.103Z,3.30
2023-03-07T23:51:12.728Z,3.30
2023-03-07T23:53:39.219Z,3.32
2023-03-07T23:56:06.411Z,3.33
2023-03-07T23:58:36.348Z,3.33
